Rincon, PR (00677)

4:53 AM AST on July 25, 2016 (GMT -0400)
Urb. Villas de la Pradera | | Change Station

Elev 33 ft 18.33 °N, 67.24 °W | Updated 27 seconds ago

Mostly Cloudy
Mostly Cloudy
77.0 °F
Feels Like 78 °F
N
0.2
Wind Variable Wind from South
Gusts 2.5 mph

Today
High -- | Low -- °F
--% Chance of Precip.
Yesterday
High -- | Low -- °F
Precip. -- in
Pressure 29.99 in
Visibility 10.0 miles
Clouds Few 2500 ft
Mostly Cloudy 5000 ft
Heat Index 78 °F
Dew Point 71 °F
Humidity 83%
Rainfall 0.00 in
Snow Depth Not available.
6:04 AM 7:06 PM
Waning Gibbous, 68% visible
METAR TJPS 250650Z 00000KT 10SM FEW025 BKN050 24/23 A2999
Pressure 29.99 in
Visibility 10.0 miles
Clouds Few 2500 ft
Mostly Cloudy 5000 ft
Heat Index 78 °F
Dew Point 71 °F
Humidity 83%
Rainfall 0.00 in
Snow Depth Not available.
6:04 AM 7:06 PM
Waning Gibbous, 68% visible
METAR TJPS 250650Z 00000KT 10SM FEW025 BKN050 24/23 A2999

10-Day Weather Forecast

Almanac

Astronomy

Jul. 25, 2016 Rise Set
Actual Time
Civil Twilight
Nautical Twilight
Astronomical Twilight
Moon
Length of Visible Light
Length of Day
Tomorrow will be .
, % of the Moon is Illuminated

Today's Extremes

State Highs State Lows

Community

WunderPhotos

Upload Photos

1,927,274 photos uploaded!

WunderBlog® & News

Nearby

Air Quality

  Air Quality AQ Index Pollutant
Not available.

Snow Depth

Station Depth Elevation

Earthquake Activity

City Distance Mag. Time & Date
Minimum magnitude displayed is 2.5.

Coastal Water Temperatures

Place Temperature

Stations

Nearby Weather Stations

Station Location Temp. Windchill Dew Point Humidity Wind Precip. Elev Updated Type
                   

Watches & Warnings

There are currently no watches in effect.